El Paso, TX

1:00 PM MDT on September 02, 2015 (GMT -0600)
APRSWXNET | | Change Station
CLOSE
Current Station
Personal Weather Station
Location: Chaparral, NM
Elevation: 3943 ft
Nearby Weather Stations

Elev 3943 ft 32.00 °N, 106.57 °W | Updated 32 minutes ago

Clear
Clear
91 °F
Feels Like 88 °F
N
4
Wind Variable Wind from NE
Gusts 0.0 mph

Today
High -- | Low -- °F
--% Chance of Precip.
Yesterday
High -- | Low -- °F
Precip. -- in
6:42 AM 7:29 PM
Waning Gibbous, 78% visible
Pressure 29.82 in
Visibility 10.0 miles
Clouds Few 10000 ft
Scattered Clouds 26000 ft
Heat Index 88 °F
Dew Point 50 °F
Humidity 25%
Rainfall in
Snow Depth Not available.
UV 9 out of 12
Pollen 9.30 out of 12
Air Quality Not available.
Flu Activity Not available.
METAR KELP 021851Z VRB04KT 10SM FEW100 SCT260 34/08 A3007 RMK AO2 SLP097 CB DSNT NE AND NW TCU DSNT NE-SE T03440083
Pressure 29.82 in
Visibility 10.0 miles
Clouds Few 10000 ft
Scattered Clouds 26000 ft
Heat Index 88 °F
Dew Point 50 °F
Humidity 25%
Rainfall in
Snow Depth Not available.
UV 9 out of 12
Pollen 9.30 out of 12
Air Quality Not available.
Flu Activity Not available.
METAR KELP 021851Z VRB04KT 10SM FEW100 SCT260 34/08 A3007 RMK AO2 SLP097 CB DSNT NE AND NW TCU DSNT NE-SE T03440083

10-Day Weather Forecast

×

Almanac

Astronomy

Sep. 02, 2015 Rise Set
Actual Time
Civil Twilight
Nautical Twilight
Astronomical Twilight
Moon
Length of Visible Light
Length of Day
Tomorrow will be .
, % of the Moon is Illuminated

Today's Extremes

State Highs State Lows

Community

WunderPhotos

Upload Photos

1,851,799 photos uploaded!

WunderBlogs® & News

Nearby

Air Quality

  Air Quality AQ Index Pollutant
Not available.

Snow Depth

Station Depth Elevation

Earthquake Activity

City Distance Mag. Time & Date
Minimum magnitude displayed is 2.5.

Coastal Water Temperatures

Place Temperature

Stations

Nearby Weather Stations

Station Location Temp. Windchill Dew Point Humidity Wind Precip. Elev Updated Type